sensor_id;sensor_type;location;lat;lon;timestamp;P1;durP1;ratioP1;P2;durP2;ratioP2
48042;SDS011;33988;47.992;8.820;2023-04-01T00:01:12;0.55;;;0.40;;
48042;SDS011;33988;47.992;8.820;2023-04-01T00:03:42;0.40;;;0.32;;
48042;SDS011;33988;47.992;8.820;2023-04-01T00:06:15;0.57;;;0.40;;
48042;SDS011;33988;47.992;8.820;2023-04-01T00:08:46;0.63;;;0.50;;
48042;SDS011;33988;47.992;8.820;2023-04-01T00:11:14;1.13;;;0.52;;
48042;SDS011;33988;47.992;8.820;2023-04-01T00:13:47;0.50;;;0.40;;
48042;SDS011;33988;47.992;8.820;2023-04-01T00:16:14;0.60;;;0.50;;
48042;SDS011;33988;47.992;8.820;2023-04-01T00:18:48;1.45;;;0.50;;
48042;SDS011;33988;47.992;8.820;2023-04-01T00:21:19;0.53;;;0.40;;
48042;SDS011;33988;47.992;8.820;2023-04-01T00:23:47;0.73;;;0.50;;
48042;SDS011;33988;47.992;8.820;2023-04-01T00:26:15;0.75;;;0.30;;
48042;SDS011;33988;47.992;8.820;2023-04-01T00:28:45;1.58;;;0.45;;
48042;SDS011;33988;47.992;8.820;2023-04-01T00:31:13;1.95;;;0.30;;
48042;SDS011;33988;47.992;8.820;2023-04-01T00:33:40;0.32;;;0.30;;
48042;SDS011;33988;47.992;8.820;2023-04-01T00:36:12;0.73;;;0.50;;
48042;SDS011;33988;47.992;8.820;2023-04-01T00:38:43;0.80;;;0.30;;
48042;SDS011;33988;47.992;8.820;2023-04-01T00:41:15;0.50;;;0.40;;
48042;SDS011;33988;47.992;8.820;2023-04-01T00:43:44;1.17;;;0.52;;
48042;SDS011;33988;47.992;8.820;2023-04-01T00:46:14;1.02;;;0.50;;
48042;SDS011;33988;47.992;8.820;2023-04-01T00:48:51;0.40;;;0.30;;
48042;SDS011;33988;47.992;8.820;2023-04-01T00:51:27;0.70;;;0.47;;
48042;SDS011;33988;47.992;8.820;2023-04-01T00:53:56;0.50;;;0.50;;
48042;SDS011;33988;47.992;8.820;2023-04-01T00:56:38;4.43;;;1.58;;
48042;SDS011;33988;47.992;8.820;2023-04-01T00:59:14;0.90;;;0.65;;
48042;SDS011;33988;47.992;8.820;2023-04-01T01:01:48;2.33;;;0.60;;
48042;SDS011;33988;47.992;8.820;2023-04-01T01:12:45;1.25;;;0.70;;
48042;SDS011;33988;47.992;8.820;2023-04-01T01:15:24;0.30;;;0.30;;
48042;SDS011;33988;47.992;8.820;2023-04-01T01:21:03;2.55;;;0.50;;
48042;SDS011;33988;47.992;8.820;2023-04-01T01:27:13;0.73;;;0.40;;
48042;SDS011;33988;47.992;8.820;2023-04-01T01:35:58;0.13;;;0.13;;
48042;SDS011;33988;47.992;8.820;2023-04-01T01:38:31;0.32;;;0.20;;
48042;SDS011;33988;47.992;8.820;2023-04-01T01:41:01;2.08;;;0.38;;
48042;SDS011;33988;47.992;8.820;2023-04-01T01:43:35;0.45;;;0.30;;
48042;SDS011;33988;47.992;8.820;2023-04-01T01:46:14;0.68;;;0.38;;
48042;SDS011;33988;47.992;8.820;2023-04-01T01:48:46;0.82;;;0.50;;
48042;SDS011;33988;47.992;8.820;2023-04-01T01:51:17;0.90;;;0.50;;
48042;SDS011;33988;47.992;8.820;2023-04-01T01:53:46;1.50;;;0.40;;
48042;SDS011;33988;47.992;8.820;2023-04-01T01:56:16;0.20;;;0.20;;
48042;SDS011;33988;47.992;8.820;2023-04-01T01:58:54;0.20;;;0.20;;
48042;SDS011;33988;47.992;8.820;2023-04-01T02:01:30;0.20;;;0.20;;
48042;SDS011;33988;47.992;8.820;2023-04-01T02:04:02;0.52;;;0.30;;
48042;SDS011;33988;47.992;8.820;2023-04-01T02:06:34;0.52;;;0.52;;
48042;SDS011;33988;47.992;8.820;2023-04-01T02:09:09;0.10;;;0.10;;
48042;SDS011;33988;47.992;8.820;2023-04-01T02:14:17;1.60;;;0.50;;
48042;SDS011;33988;47.992;8.820;2023-04-01T02:19:22;1.05;;;0.45;;
48042;SDS011;33988;47.992;8.820;2023-04-01T02:21:59;0.85;;;0.30;;
48042;SDS011;33988;47.992;8.820;2023-04-01T02:24:30;0.63;;;0.40;;
48042;SDS011;33988;47.992;8.820;2023-04-01T02:27:02;1.60;;;0.50;;
48042;SDS011;33988;47.992;8.820;2023-04-01T02:29:30;0.80;;;0.43;;
48042;SDS011;33988;47.992;8.820;2023-04-01T02:31:57;1.55;;;0.55;;
48042;SDS011;33988;47.992;8.820;2023-04-01T02:34:25;0.30;;;0.20;;
48042;SDS011;33988;47.992;8.820;2023-04-01T02:36:52;1.25;;;0.47;;
48042;SDS011;33988;47.992;8.820;2023-04-01T02:39:21;0.77;;;0.40;;
48042;SDS011;33988;47.992;8.820;2023-04-01T02:41:48;0.85;;;0.20;;
48042;SDS011;33988;47.992;8.820;2023-04-01T02:44:15;0.63;;;0.30;;
48042;SDS011;33988;47.992;8.820;2023-04-01T02:46:45;0.30;;;0.30;;
48042;SDS011;33988;47.992;8.820;2023-04-01T02:49:12;1.08;;;0.30;;
48042;SDS011;33988;47.992;8.820;2023-04-01T02:51:41;0.30;;;0.30;;
48042;SDS011;33988;47.992;8.820;2023-04-01T02:54:10;1.08;;;0.40;;
48042;SDS011;33988;47.992;8.820;2023-04-01T02:56:37;0.38;;;0.38;;
48042;SDS011;33988;47.992;8.820;2023-04-01T02:59:04;0.50;;;0.32;;
48042;SDS011;33988;47.992;8.820;2023-04-01T03:01:34;0.40;;;0.38;;
48042;SDS011;33988;47.992;8.820;2023-04-01T03:04:04;0.57;;;0.32;;
48042;SDS011;33988;47.992;8.820;2023-04-01T03:06:34;0.63;;;0.30;;
48042;SDS011;33988;47.992;8.820;2023-04-01T03:09:03;0.60;;;0.32;;
48042;SDS011;33988;47.992;8.820;2023-04-01T03:11:32;0.68;;;0.45;;
48042;SDS011;33988;47.992;8.820;2023-04-01T03:14:01;0.50;;;0.40;;
48042;SDS011;33988;47.992;8.820;2023-04-01T03:16:31;0.40;;;0.30;;
48042;SDS011;33988;47.992;8.820;2023-04-01T03:19:00;0.57;;;0.30;;
48042;SDS011;33988;47.992;8.820;2023-04-01T03:21:28;0.47;;;0.20;;
48042;SDS011;33988;47.992;8.820;2023-04-01T03:23:55;1.20;;;0.30;;
48042;SDS011;33988;47.992;8.820;2023-04-01T03:26:26;0.95;;;0.40;;
48042;SDS011;33988;47.992;8.820;2023-04-01T03:28:56;0.35;;;0.30;;
48042;SDS011;33988;47.992;8.820;2023-04-01T03:31:23;1.20;;;0.40;;
48042;SDS011;33988;47.992;8.820;2023-04-01T03:33:53;0.45;;;0.30;;
48042;SDS011;33988;47.992;8.820;2023-04-01T03:36:24;0.73;;;0.40;;
48042;SDS011;33988;47.992;8.820;2023-04-01T03:38:52;0.70;;;0.20;;
48042;SDS011;33988;47.992;8.820;2023-04-01T03:41:19;1.75;;;0.40;;
48042;SDS011;33988;47.992;8.820;2023-04-01T03:43:46;0.80;;;0.40;;
48042;SDS011;33988;47.992;8.820;2023-04-01T03:46:21;0.65;;;0.30;;
48042;SDS011;33988;47.992;8.820;2023-04-01T03:48:48;0.65;;;0.30;;
48042;SDS011;33988;47.992;8.820;2023-04-01T03:51:15;1.27;;;0.22;;
48042;SDS011;33988;47.992;8.820;2023-04-01T03:53:42;0.35;;;0.30;;
48042;SDS011;33988;47.992;8.820;2023-04-01T03:56:09;0.30;;;0.20;;
48042;SDS011;33988;47.992;8.820;2023-04-01T03:58:37;0.65;;;0.30;;
48042;SDS011;33988;47.992;8.820;2023-04-01T04:01:13;1.80;;;0.43;;
48042;SDS011;33988;47.992;8.820;2023-04-01T04:03:46;0.52;;;0.20;;
48042;SDS011;33988;47.992;8.820;2023-04-01T04:06:16;0.45;;;0.28;;
48042;SDS011;33988;47.992;8.820;2023-04-01T04:08:45;0.60;;;0.28;;
48042;SDS011;33988;47.992;8.820;2023-04-01T04:11:12;1.00;;;0.20;;
48042;SDS011;33988;47.992;8.820;2023-04-01T04:13:45;0.52;;;0.28;;
48042;SDS011;33988;47.992;8.820;2023-04-01T04:16:15;1.05;;;0.90;;
48042;SDS011;33988;47.992;8.820;2023-04-01T04:18:44;0.77;;;0.60;;
48042;SDS011;33988;47.992;8.820;2023-04-01T04:21:15;0.85;;;0.40;;
48042;SDS011;33988;47.992;8.820;2023-04-01T04:23:42;0.30;;;0.30;;
48042;SDS011;33988;47.992;8.820;2023-04-01T04:26:10;1.33;;;0.40;;
48042;SDS011;33988;47.992;8.820;2023-04-01T04:28:40;0.20;;;0.20;;
48042;SDS011;33988;47.992;8.820;2023-04-01T04:31:07;2.25;;;0.63;;
48042;SDS011;33988;47.992;8.820;2023-04-01T04:33:37;2.00;;;0.40;;
48042;SDS011;33988;47.992;8.820;2023-04-01T04:36:04;0.80;;;0.40;;
48042;SDS011;33988;47.992;8.820;2023-04-01T04:38:34;1.45;;;0.55;;
48042;SDS011;33988;47.992;8.820;2023-04-01T04:41:03;3.85;;;0.80;;
48042;SDS011;33988;47.992;8.820;2023-04-01T04:43:39;1.33;;;0.47;;
48042;SDS011;33988;47.992;8.820;2023-04-01T04:46:10;2.38;;;0.50;;
48042;SDS011;33988;47.992;8.820;2023-04-01T04:48:37;1.80;;;0.50;;
48042;SDS011;33988;47.992;8.820;2023-04-01T04:51:04;0.88;;;0.30;;
48042;SDS011;33988;47.992;8.820;2023-04-01T04:53:33;1.02;;;0.52;;
48042;SDS011;33988;47.992;8.820;2023-04-01T04:56:00;1.13;;;0.38;;
48042;SDS011;33988;47.992;8.820;2023-04-01T04:58:35;1.13;;;0.50;;
48042;SDS011;33988;47.992;8.820;2023-04-01T05:01:15;1.50;;;0.60;;
48042;SDS011;33988;47.992;8.820;2023-04-01T05:03:45;2.03;;;0.40;;
48042;SDS011;33988;47.992;8.820;2023-04-01T05:06:15;1.45;;;0.40;;
48042;SDS011;33988;47.992;8.820;2023-04-01T05:08:48;0.30;;;0.30;;
48042;SDS011;33988;47.992;8.820;2023-04-01T05:11:18;0.68;;;0.30;;
48042;SDS011;33988;47.992;8.820;2023-04-01T05:13:46;1.40;;;0.40;;
48042;SDS011;33988;47.992;8.820;2023-04-01T05:16:15;2.28;;;0.82;;
48042;SDS011;33988;47.992;8.820;2023-04-01T05:18:45;0.40;;;0.30;;
48042;SDS011;33988;47.992;8.820;2023-04-01T05:21:14;0.35;;;0.35;;
48042;SDS011;33988;47.992;8.820;2023-04-01T05:23:42;0.85;;;0.40;;
48042;SDS011;33988;47.992;8.820;2023-04-01T05:26:12;0.65;;;0.40;;
48042;SDS011;33988;47.992;8.820;2023-04-01T05:28:42;0.90;;;0.45;;
48042;SDS011;33988;47.992;8.820;2023-04-01T05:31:09;0.20;;;0.20;;
48042;SDS011;33988;47.992;8.820;2023-04-01T05:33:39;0.20;;;0.20;;
48042;SDS011;33988;47.992;8.820;2023-04-01T05:36:09;0.52;;;0.40;;
48042;SDS011;33988;47.992;8.820;2023-04-01T05:38:39;0.37;;;0.30;;
48042;SDS011;33988;47.992;8.820;2023-04-01T05:41:08;0.40;;;0.30;;
48042;SDS011;33988;47.992;8.820;2023-04-01T05:43:36;0.73;;;0.25;;
48042;SDS011;33988;47.992;8.820;2023-04-01T05:46:06;0.20;;;0.20;;
48042;SDS011;33988;47.992;8.820;2023-04-01T05:48:36;0.22;;;0.10;;
48042;SDS011;33988;47.992;8.820;2023-04-01T05:51:04;1.10;;;0.30;;
48042;SDS011;33988;47.992;8.820;2023-04-01T05:53:43;1.65;;;0.32;;
48042;SDS011;33988;47.992;8.820;2023-04-01T05:56:12;0.35;;;0.30;;
48042;SDS011;33988;47.992;8.820;2023-04-01T05:58:40;0.30;;;0.25;;
48042;SDS011;33988;47.992;8.820;2023-04-01T06:01:08;0.20;;;0.20;;
48042;SDS011;33988;47.992;8.820;2023-04-01T06:03:41;0.68;;;0.32;;
48042;SDS011;33988;47.992;8.820;2023-04-01T06:06:15;0.60;;;0.40;;
48042;SDS011;33988;47.992;8.820;2023-04-01T06:08:52;0.38;;;0.30;;
48042;SDS011;33988;47.992;8.820;2023-04-01T06:33:52;1.02;;;0.60;;
48042;SDS011;33988;47.992;8.820;2023-04-01T06:39:07;1.55;;;0.43;;
48042;SDS011;33988;47.992;8.820;2023-04-01T06:56:44;0.63;;;0.63;;
48042;SDS011;33988;47.992;8.820;2023-04-01T06:59:19;0.90;;;0.68;;
48042;SDS011;33988;47.992;8.820;2023-04-01T07:01:57;2.63;;;1.00;;
48042;SDS011;33988;47.992;8.820;2023-04-01T07:04:38;1.17;;;0.80;;
48042;SDS011;33988;47.992;8.820;2023-04-01T07:07:24;1.10;;;0.52;;
48042;SDS011;33988;47.992;8.820;2023-04-01T07:13:17;0.40;;;0.40;;
48042;SDS011;33988;47.992;8.820;2023-04-01T07:15:54;1.00;;;0.50;;
48042;SDS011;33988;47.992;8.820;2023-04-01T07:21:49;0.95;;;0.32;;
48042;SDS011;33988;47.992;8.820;2023-04-01T07:24:22;0.73;;;0.50;;
48042;SDS011;33988;47.992;8.820;2023-04-01T07:26:58;1.10;;;0.60;;
48042;SDS011;33988;47.992;8.820;2023-04-01T07:29:26;1.05;;;0.73;;
48042;SDS011;33988;47.992;8.820;2023-04-01T07:52:23;0.50;;;0.30;;
48042;SDS011;33988;47.992;8.820;2023-04-01T07:55:14;0.30;;;0.20;;
48042;SDS011;33988;47.992;8.820;2023-04-01T07:58:06;0.38;;;0.20;;
48042;SDS011;33988;47.992;8.820;2023-04-01T08:06:25;0.15;;;0.15;;
48042;SDS011;33988;47.992;8.820;2023-04-01T08:12:17;0.65;;;0.28;;
48042;SDS011;33988;47.992;8.820;2023-04-01T08:20:45;0.40;;;0.30;;
48042;SDS011;33988;47.992;8.820;2023-04-01T08:23:19;0.40;;;0.30;;
48042;SDS011;33988;47.992;8.820;2023-04-01T08:26:01;1.65;;;0.20;;
48042;SDS011;33988;47.992;8.820;2023-04-01T08:31:09;0.30;;;0.30;;
48042;SDS011;33988;47.992;8.820;2023-04-01T08:33:53;0.45;;;0.30;;
48042;SDS011;33988;47.992;8.820;2023-04-01T08:36:23;1.10;;;0.63;;
48042;SDS011;33988;47.992;8.820;2023-04-01T08:38:59;1.10;;;0.88;;
48042;SDS011;33988;47.992;8.820;2023-04-01T08:50:18;0.22;;;0.22;;
48042;SDS011;33988;47.992;8.820;2023-04-01T09:28:02;0.68;;;0.55;;
48042;SDS011;33988;47.992;8.820;2023-04-01T09:30:49;0.60;;;0.60;;
48042;SDS011;33988;47.992;8.820;2023-04-01T09:41:47;1.15;;;0.80;;
48042;SDS011;33988;47.992;8.820;2023-04-01T09:44:30;0.40;;;0.40;;
48042;SDS011;33988;47.992;8.820;2023-04-01T09:50:00;0.50;;;0.25;;
48042;SDS011;33988;47.992;8.820;2023-04-01T09:52:55;0.30;;;0.30;;
48042;SDS011;33988;47.992;8.820;2023-04-01T10:01:19;0.30;;;0.30;;
48042;SDS011;33988;47.992;8.820;2023-04-01T10:25:07;0.50;;;0.50;;
48042;SDS011;33988;47.992;8.820;2023-04-01T10:31:01;0.30;;;0.30;;
48042;SDS011;33988;47.992;8.820;2023-04-01T11:26:09;0.63;;;0.57;;
48042;SDS011;33988;47.992;8.820;2023-04-01T11:29:01;0.30;;;0.30;;
48042;SDS011;33988;47.992;8.820;2023-04-01T11:31:43;0.35;;;0.35;;
48042;SDS011;33988;47.992;8.820;2023-04-01T11:34:29;0.38;;;0.38;;
48042;SDS011;33988;47.992;8.820;2023-04-01T11:43:14;1.05;;;0.77;;
48042;SDS011;33988;47.992;8.820;2023-04-01T11:46:11;1.38;;;0.90;;
48042;SDS011;33988;47.992;8.820;2023-04-01T11:57:51;1.25;;;0.50;;
48042;SDS011;33988;47.992;8.820;2023-04-01T12:01:16;0.80;;;0.60;;
48042;SDS011;33988;47.992;8.820;2023-04-01T12:07:03;0.40;;;0.40;;
48042;SDS011;33988;47.992;8.820;2023-04-01T12:24:25;0.68;;;0.50;;
48042;SDS011;33988;47.992;8.820;2023-04-01T12:35:23;0.30;;;0.30;;
48042;SDS011;33988;47.992;8.820;2023-04-01T12:55:48;0.20;;;0.20;;
48042;SDS011;33988;47.992;8.820;2023-04-01T13:16:06;0.43;;;0.30;;
48042;SDS011;33988;47.992;8.820;2023-04-01T13:19:10;0.75;;;0.57;;
48042;SDS011;33988;47.992;8.820;2023-04-01T13:30:18;0.90;;;0.60;;
48042;SDS011;33988;47.992;8.820;2023-04-01T13:33:41;1.27;;;0.57;;
48042;SDS011;33988;47.992;8.820;2023-04-01T13:53:07;0.40;;;0.40;;
48042;SDS011;33988;47.992;8.820;2023-04-01T14:01:32;0.77;;;0.50;;
48042;SDS011;33988;47.992;8.820;2023-04-01T14:50:03;0.55;;;0.52;;
48042;SDS011;33988;47.992;8.820;2023-04-01T14:52:43;1.23;;;0.75;;
48042;SDS011;33988;47.992;8.820;2023-04-01T14:55:35;0.98;;;0.60;;
48042;SDS011;33988;47.992;8.820;2023-04-01T14:58:24;1.20;;;0.68;;
48042;SDS011;33988;47.992;8.820;2023-04-01T15:03:49;1.88;;;0.88;;
48042;SDS011;33988;47.992;8.820;2023-04-01T15:12:59;1.10;;;0.90;;
48042;SDS011;33988;47.992;8.820;2023-04-01T15:33:11;1.88;;;1.02;;
48042;SDS011;33988;47.992;8.820;2023-04-01T15:39:13;3.83;;;1.15;;
48042;SDS011;33988;47.992;8.820;2023-04-01T15:41:57;2.15;;;1.20;;
48042;SDS011;33988;47.992;8.820;2023-04-01T15:47:00;1.80;;;0.98;;
48042;SDS011;33988;47.992;8.820;2023-04-01T15:49:43;1.48;;;0.80;;
48042;SDS011;33988;47.992;8.820;2023-04-01T15:52:43;0.55;;;0.50;;
48042;SDS011;33988;47.992;8.820;2023-04-01T16:21:49;0.98;;;0.70;;
48042;SDS011;33988;47.992;8.820;2023-04-01T16:27:16;2.90;;;0.70;;
48042;SDS011;33988;47.992;8.820;2023-04-01T16:32:58;2.20;;;1.27;;
48042;SDS011;33988;47.992;8.820;2023-04-01T16:51:44;1.58;;;1.17;;
48042;SDS011;33988;47.992;8.820;2023-04-01T17:02:14;1.92;;;1.42;;
48042;SDS011;33988;47.992;8.820;2023-04-01T17:07:46;1.45;;;1.35;;
48042;SDS011;33988;47.992;8.820;2023-04-01T17:22:31;1.17;;;1.00;;
48042;SDS011;33988;47.992;8.820;2023-04-01T17:28:02;1.88;;;1.35;;
48042;SDS011;33988;47.992;8.820;2023-04-01T17:30:39;1.70;;;1.30;;
48042;SDS011;33988;47.992;8.820;2023-04-01T17:33:41;1.90;;;1.30;;
48042;SDS011;33988;47.992;8.820;2023-04-01T17:39:02;1.40;;;1.02;;
48042;SDS011;33988;47.992;8.820;2023-04-01T17:44:47;1.65;;;1.13;;
48042;SDS011;33988;47.992;8.820;2023-04-01T17:47:41;1.70;;;1.23;;
48042;SDS011;33988;47.992;8.820;2023-04-01T17:53:29;2.40;;;1.65;;
48042;SDS011;33988;47.992;8.820;2023-04-01T18:05:16;2.13;;;1.63;;
48042;SDS011;33988;47.992;8.820;2023-04-01T18:21:45;2.42;;;1.27;;
48042;SDS011;33988;47.992;8.820;2023-04-01T18:24:24;4.90;;;1.90;;
48042;SDS011;33988;47.992;8.820;2023-04-01T18:27:22;3.38;;;2.22;;
48042;SDS011;33988;47.992;8.820;2023-04-01T18:30:00;2.90;;;2.10;;
48042;SDS011;33988;47.992;8.820;2023-04-01T18:38:13;3.72;;;2.17;;
48042;SDS011;33988;47.992;8.820;2023-04-01T18:46:07;2.83;;;2.10;;
48042;SDS011;33988;47.992;8.820;2023-04-01T18:52:02;3.58;;;2.00;;
48042;SDS011;33988;47.992;8.820;2023-04-01T18:57:38;2.88;;;1.95;;
48042;SDS011;33988;47.992;8.820;2023-04-01T19:00:25;5.40;;;3.28;;
48042;SDS011;33988;47.992;8.820;2023-04-01T19:03:06;3.83;;;2.35;;
48042;SDS011;33988;47.992;8.820;2023-04-01T19:05:47;2.67;;;2.00;;
48042;SDS011;33988;47.992;8.820;2023-04-01T19:08:27;3.58;;;1.90;;
48042;SDS011;33988;47.992;8.820;2023-04-01T19:14:08;3.15;;;1.42;;
48042;SDS011;33988;47.992;8.820;2023-04-01T19:26:05;2.58;;;1.65;;
48042;SDS011;33988;47.992;8.820;2023-04-01T19:34:14;2.58;;;1.92;;
48042;SDS011;33988;47.992;8.820;2023-04-01T19:37:18;2.97;;;2.17;;
48042;SDS011;33988;47.992;8.820;2023-04-01T19:55:02;2.03;;;1.83;;
48042;SDS011;33988;47.992;8.820;2023-04-01T19:57:59;1.95;;;1.65;;
48042;SDS011;33988;47.992;8.820;2023-04-01T20:00:58;2.15;;;1.90;;
48042;SDS011;33988;47.992;8.820;2023-04-01T20:03:50;3.03;;;1.80;;
48042;SDS011;33988;47.992;8.820;2023-04-01T20:09:47;2.60;;;1.92;;
48042;SDS011;33988;47.992;8.820;2023-04-01T20:15:33;3.08;;;1.83;;
48042;SDS011;33988;47.992;8.820;2023-04-01T20:18:18;3.47;;;1.70;;
48042;SDS011;33988;47.992;8.820;2023-04-01T20:20:53;2.97;;;1.80;;
48042;SDS011;33988;47.992;8.820;2023-04-01T20:26:12;2.58;;;1.83;;
48042;SDS011;33988;47.992;8.820;2023-04-01T20:29:02;2.50;;;2.15;;
48042;SDS011;33988;47.992;8.820;2023-04-01T20:31:57;2.40;;;1.85;;
48042;SDS011;33988;47.992;8.820;2023-04-01T20:34:36;2.03;;;1.70;;
48042;SDS011;33988;47.992;8.820;2023-04-01T20:40:24;2.70;;;1.60;;
48042;SDS011;33988;47.992;8.820;2023-04-01T20:51:43;1.95;;;1.63;;
48042;SDS011;33988;47.992;8.820;2023-04-01T20:57:21;2.20;;;1.48;;
48042;SDS011;33988;47.992;8.820;2023-04-01T21:00:20;2.20;;;1.63;;
48042;SDS011;33988;47.992;8.820;2023-04-01T21:06:09;1.70;;;1.40;;
48042;SDS011;33988;47.992;8.820;2023-04-01T21:09:05;1.60;;;1.17;;
48042;SDS011;33988;47.992;8.820;2023-04-01T21:26:08;1.85;;;1.25;;
48042;SDS011;33988;47.992;8.820;2023-04-01T21:28:59;2.03;;;1.30;;
48042;SDS011;33988;47.992;8.820;2023-04-01T21:37:53;1.77;;;1.48;;
48042;SDS011;33988;47.992;8.820;2023-04-01T21:40:55;2.55;;;1.10;;
48042;SDS011;33988;47.992;8.820;2023-04-01T21:44:12;1.60;;;1.10;;
48042;SDS011;33988;47.992;8.820;2023-04-01T21:53:31;1.55;;;1.08;;
48042;SDS011;33988;47.992;8.820;2023-04-01T22:05:17;1.45;;;1.05;;
48042;SDS011;33988;47.992;8.820;2023-04-01T22:11:03;2.15;;;1.38;;
48042;SDS011;33988;47.992;8.820;2023-04-01T22:13:59;1.40;;;1.10;;
48042;SDS011;33988;47.992;8.820;2023-04-01T22:19:39;1.08;;;0.93;;
48042;SDS011;33988;47.992;8.820;2023-04-01T22:22:37;1.30;;;0.93;;
48042;SDS011;33988;47.992;8.820;2023-04-01T22:25:55;1.02;;;0.93;;
48042;SDS011;33988;47.992;8.820;2023-04-01T22:29:22;2.05;;;1.00;;
48042;SDS011;33988;47.992;8.820;2023-04-01T22:31:59;1.10;;;1.00;;
48042;SDS011;33988;47.992;8.820;2023-04-01T22:34:49;4.53;;;1.10;;
48042;SDS011;33988;47.992;8.820;2023-04-01T22:46:16;2.08;;;1.40;;
48042;SDS011;33988;47.992;8.820;2023-04-01T22:49:24;1.10;;;1.00;;
48042;SDS011;33988;47.992;8.820;2023-04-01T22:55:24;1.10;;;0.80;;
48042;SDS011;33988;47.992;8.820;2023-04-01T22:58:05;1.27;;;1.08;;
48042;SDS011;33988;47.992;8.820;2023-04-01T23:05:59;1.30;;;1.20;;
48042;SDS011;33988;47.992;8.820;2023-04-01T23:11:20;1.00;;;0.85;;
48042;SDS011;33988;47.992;8.820;2023-04-01T23:16:51;1.17;;;0.80;;
48042;SDS011;33988;47.992;8.820;2023-04-01T23:34:02;0.60;;;0.50;;
48042;SDS011;33988;47.992;8.820;2023-04-01T23:36:50;1.17;;;0.60;;
48042;SDS011;33988;47.992;8.820;2023-04-01T23:39:48;1.35;;;0.70;;
48042;SDS011;33988;47.992;8.820;2023-04-01T23:42:24;0.93;;;0.80;;
48042;SDS011;33988;47.992;8.820;2023-04-01T23:44:56;0.60;;;0.60;;
48042;SDS011;33988;47.992;8.820;2023-04-01T23:47:33;2.20;;;0.80;;
48042;SDS011;33988;47.992;8.820;2023-04-01T23:55:32;2.63;;;0.75;;
48042;SDS011;33988;47.992;8.820;2023-04-01T23:58:16;0.70;;;0.70;;
